Scipio, UT (84656)

1:04 AM MDT on July 27, 2016 (GMT -0600)
RAWS | | Change Station

Elev 5369 ft 39.33 °N, 112.05 °W | Updated 1 hour ago

Clear
Clear
77.0 °F
Feels Like 77.0 °F
N
6.0
Wind Variable Wind from SSW
Gusts 9.0 mph

Today
High -- | Low -- °F
--% Chance of Precip.
Yesterday
High -- | Low -- °F
Precip. -- in
Pressure 30.07 in
Visibility 10.0 miles
Clouds Clear
Dew Point 32.0 °F
Humidity 19%
Rainfall in
Snow Depth Not available.
6:24 AM 8:44 PM
Last Quarter, 46% visible
METAR KPVU 270655Z AUTO 34005KT 10SM CLR 22/04 A3007 RMK AO1
Pressure 30.07 in
Visibility 10.0 miles
Clouds Clear
Dew Point 32.0 °F
Humidity 19%
Rainfall in
Snow Depth Not available.
6:24 AM 8:44 PM
Last Quarter, 46% visible
METAR KPVU 270655Z AUTO 34005KT 10SM CLR 22/04 A3007 RMK AO1

10-Day Weather Forecast

Almanac

Astronomy

Jul. 27, 2016 Rise Set
Actual Time
Civil Twilight
Nautical Twilight
Astronomical Twilight
Moon
Length of Visible Light
Length of Day
Tomorrow will be .
, % of the Moon is Illuminated

Today's Extremes

State Highs State Lows

Community

WunderPhotos

Upload Photos

1,927,818 photos uploaded!

WunderBlog® & News

Nearby

Air Quality

  Air Quality AQ Index Pollutant
Not available.

Snow Depth

Station Depth Elevation

Earthquake Activity

City Distance Mag. Time & Date
Minimum magnitude displayed is 2.5.

Coastal Water Temperatures

Place Temperature

Stations

Nearby Weather Stations

Station Location Temp. Windchill Dew Point Humidity Wind Precip. Elev Updated Type
                   

Watches & Warnings

There are currently no watches in effect.